createdAt,value
2023-04-23T00:02:13.512Z,78.00
2023-04-23T00:04:50.189Z,78.00
2023-04-23T00:07:20.219Z,77.90
2023-04-23T00:09:47.337Z,77.60
2023-04-23T00:12:14.558Z,77.30
2023-04-23T00:14:41.911Z,77.30
2023-04-23T00:17:09.035Z,77.20
2023-04-23T00:19:35.981Z,77.20
2023-04-23T00:22:03.206Z,77.30
2023-04-23T00:24:31.956Z,77.50
2023-04-23T00:26:58.849Z,77.40
2023-04-23T00:29:25.690Z,77.60
2023-04-23T00:31:52.661Z,78.70
2023-04-23T00:34:19.789Z,78.20
2023-04-23T00:36:46.651Z,78.20
2023-04-23T00:39:13.484Z,78.00
2023-04-23T00:41:42.535Z,78.40
2023-04-23T00:44:09.413Z,78.50
2023-04-23T00:46:37.406Z,78.30
2023-04-23T00:49:04.294Z,77.80
2023-04-23T00:51:32.203Z,77.40
2023-04-23T00:53:59.121Z,77.10
2023-04-23T00:56:27.891Z,77.20
2023-04-23T00:58:56.391Z,77.30
2023-04-23T01:01:23.799Z,76.50
2023-04-23T01:03:53.658Z,76.80
2023-04-23T01:06:21.564Z,76.10
2023-04-23T01:08:48.522Z,76.00
2023-04-23T01:11:16.227Z,76.30
2023-04-23T01:13:43.908Z,76.60
2023-04-23T01:16:11.530Z,77.20
2023-04-23T01:18:41.033Z,76.90
2023-04-23T01:21:11.591Z,77.10
2023-04-23T01:23:38.840Z,76.80
2023-04-23T01:26:05.947Z,76.80
2023-04-23T01:28:33.299Z,77.10
2023-04-23T01:31:00.973Z,76.40
2023-04-23T01:33:28.525Z,77.20
2023-04-23T01:35:56.779Z,77.00
2023-04-23T01:38:25.300Z,77.10
2023-04-23T01:40:52.150Z,77.30
2023-04-23T01:43:20.009Z,77.50
2023-04-23T01:45:46.938Z,77.90
2023-04-23T01:48:14.074Z,77.70
2023-04-23T01:50:41.710Z,78.00
2023-04-23T01:53:08.611Z,77.80
2023-04-23T01:55:39.228Z,77.90
2023-04-23T01:58:06.712Z,78.70
2023-04-23T02:00:33.592Z,78.30
2023-04-23T02:03:00.830Z,78.40
2023-04-23T02:05:29.863Z,78.20
2023-04-23T02:07:57.334Z,78.30
2023-04-23T02:10:25.268Z,78.70
2023-04-23T02:12:52.078Z,79.00
2023-04-23T02:15:20.046Z,78.70
2023-04-23T02:17:47.140Z,78.60
2023-04-23T02:20:14.158Z,78.60
2023-04-23T02:22:42.229Z,78.60
2023-04-23T02:25:09.580Z,78.70
2023-04-23T02:27:36.833Z,78.50
2023-04-23T02:30:04.518Z,78.50
2023-04-23T02:32:31.487Z,78.80
2023-04-23T02:34:59.808Z,78.40
2023-04-23T02:37:26.988Z,78.80
2023-04-23T02:39:54.238Z,78.80
2023-04-23T02:42:21.108Z,78.40
2023-04-23T02:44:48.008Z,78.50
2023-04-23T02:47:14.933Z,78.50
2023-04-23T02:49:41.789Z,78.30
2023-04-23T02:52:09.045Z,78.60
2023-04-23T02:54:37.254Z,78.50
2023-04-23T02:57:05.047Z,78.50
2023-04-23T02:59:32.236Z,78.70
2023-04-23T03:01:59.297Z,78.70
2023-04-23T03:04:26.330Z,79.50
2023-04-23T03:06:53.227Z,79.40
2023-04-23T03:09:20.083Z,80.00
2023-04-23T03:11:48.376Z,79.60
2023-04-23T03:14:15.335Z,79.20
2023-04-23T03:16:42.441Z,78.60
2023-04-23T03:19:09.459Z,78.10
2023-04-23T03:21:36.407Z,77.50
2023-04-23T03:24:03.415Z,76.70
2023-04-23T03:26:30.379Z,75.10
2023-04-23T03:28:57.246Z,72.70
2023-04-23T03:31:24.132Z,71.60
2023-04-23T03:33:51.208Z,70.10
2023-04-23T03:36:18.578Z,68.40
2023-04-23T03:38:45.484Z,67.30
2023-04-23T03:41:12.304Z,66.20
2023-04-23T03:43:39.144Z,66.20
2023-04-23T03:46:06.689Z,63.70
2023-04-23T03:48:33.726Z,63.70
2023-04-23T03:51:00.700Z,64.40
2023-04-23T03:53:27.996Z,63.90
2023-04-23T03:55:54.864Z,64.20
2023-04-23T03:58:21.886Z,63.80
2023-04-23T04:00:48.771Z,63.90
2023-04-23T04:03:15.985Z,63.70
2023-04-23T04:05:44.410Z,63.80
2023-04-23T04:08:11.476Z,62.90
2023-04-23T04:10:38.376Z,62.30
2023-04-23T04:13:05.410Z,61.30
2023-04-23T04:15:33.138Z,60.90
2023-04-23T04:18:01.314Z,61.00
2023-04-23T04:20:31.139Z,60.30
2023-04-23T04:22:58.119Z,60.70
2023-04-23T04:25:24.999Z,59.70
2023-04-23T04:27:51.938Z,58.30
2023-04-23T04:30:19.114Z,57.90
2023-04-23T04:32:46.311Z,57.10
2023-04-23T04:35:14.522Z,58.10
2023-04-23T04:37:43.878Z,56.80
2023-04-23T04:40:11.670Z,56.70
2023-04-23T04:42:39.231Z,56.90
2023-04-23T04:45:08.764Z,56.60
2023-04-23T04:47:36.277Z,56.00
2023-04-23T04:50:04.248Z,55.40
2023-04-23T04:52:31.721Z,54.80
2023-04-23T04:54:58.659Z,55.00
2023-04-23T04:57:25.671Z,54.70
2023-04-23T04:59:52.671Z,53.80
2023-04-23T05:02:21.697Z,53.00
2023-04-23T05:04:49.040Z,52.90
2023-04-23T05:07:16.123Z,51.40
2023-04-23T05:09:44.932Z,50.90
2023-04-23T05:12:12.252Z,51.40
2023-04-23T05:14:39.402Z,51.30
2023-04-23T05:17:06.438Z,50.90
2023-04-23T05:19:33.349Z,51.00
2023-04-23T05:22:02.691Z,50.20
2023-04-23T05:24:29.557Z,50.50
2023-04-23T05:26:57.316Z,49.40
2023-04-23T05:29:24.268Z,48.90
2023-04-23T05:31:51.882Z,48.50
2023-04-23T05:34:18.893Z,47.80
2023-04-23T05:36:45.822Z,47.80
2023-04-23T05:39:12.726Z,46.40
2023-04-23T05:41:39.567Z,45.10
2023-04-23T05:44:06.379Z,42.90
2023-04-23T05:46:33.288Z,41.60
2023-04-23T05:49:00.232Z,42.60
2023-04-23T05:51:27.497Z,42.10
2023-04-23T05:53:54.425Z,42.70
2023-04-23T05:56:21.748Z,42.40
2023-04-23T05:58:48.929Z,43.00
2023-04-23T06:01:15.861Z,43.50
2023-04-23T06:03:45.549Z,43.10
2023-04-23T06:06:13.354Z,43.00
2023-04-23T06:08:40.261Z,43.20
2023-04-23T06:11:07.833Z,43.60
2023-04-23T06:13:42.899Z,43.40
2023-04-23T06:16:10.849Z,42.40
2023-04-23T06:18:39.196Z,41.30
2023-04-23T06:21:06.765Z,41.10
2023-04-23T06:23:34.789Z,41.60
2023-04-23T06:26:01.669Z,41.10
2023-04-23T06:28:28.524Z,41.00
2023-04-23T06:30:55.383Z,41.40
2023-04-23T06:33:22.391Z,41.00
2023-04-23T06:35:49.359Z,40.40
2023-04-23T06:38:18.476Z,40.80
2023-04-23T06:40:45.858Z,40.70
2023-04-23T06:43:12.777Z,40.00
2023-04-23T06:45:40.388Z,39.50
2023-04-23T06:48:07.472Z,39.50
2023-04-23T06:50:34.495Z,38.90
2023-04-23T06:53:01.403Z,39.10
2023-04-23T06:55:29.100Z,38.80
2023-04-23T06:57:56.398Z,38.50
2023-04-23T07:00:23.824Z,38.40
2023-04-23T07:02:51.160Z,39.20
2023-04-23T07:05:19.134Z,38.30
2023-04-23T07:07:46.035Z,37.20
2023-04-23T07:10:15.038Z,37.10
2023-04-23T07:12:43.873Z,37.60
2023-04-23T07:15:11.392Z,36.80
2023-04-23T07:17:38.408Z,36.20
2023-04-23T07:20:06.693Z,36.00
2023-04-23T07:22:33.981Z,36.00
2023-04-23T07:25:01.733Z,36.00
2023-04-23T07:27:28.683Z,36.60
2023-04-23T07:29:55.757Z,36.50
2023-04-23T07:32:26.170Z,36.70
2023-04-23T07:34:53.389Z,36.30
2023-04-23T07:37:21.752Z,35.70
2023-04-23T07:39:49.236Z,36.10
2023-04-23T07:42:16.433Z,35.60
2023-04-23T07:44:43.382Z,35.20
2023-04-23T07:47:10.495Z,34.70
2023-04-23T07:49:37.406Z,34.50
2023-04-23T07:52:04.367Z,34.60
2023-04-23T07:54:31.259Z,33.30
2023-04-23T07:56:58.043Z,33.90
2023-04-23T07:59:24.843Z,34.00
2023-04-23T08:04:20.960Z,31.90
2023-04-23T08:06:48.008Z,32.40
2023-04-23T08:09:15.317Z,32.70
2023-04-23T08:11:42.307Z,33.00
2023-04-23T08:14:09.128Z,33.50
2023-04-23T08:16:38.777Z,32.20
2023-04-23T08:19:06.690Z,32.40
2023-04-23T08:21:34.171Z,32.60
2023-04-23T08:24:02.997Z,32.80
2023-04-23T08:26:30.706Z,32.60
2023-04-23T08:28:57.621Z,32.40
2023-04-23T08:31:26.895Z,32.30
2023-04-23T08:33:54.359Z,31.40
2023-04-23T08:36:21.485Z,31.30
2023-04-23T08:38:48.513Z,31.40
2023-04-23T08:41:18.125Z,31.70
2023-04-23T08:43:47.950Z,31.10
2023-04-23T08:46:16.224Z,30.10
2023-04-23T08:48:44.592Z,30.00
2023-04-23T08:51:13.292Z,30.00
2023-04-23T08:53:43.843Z,30.30
2023-04-23T08:56:11.081Z,30.30
2023-04-23T08:58:41.221Z,30.70
2023-04-23T09:01:08.543Z,30.80
2023-04-23T09:03:38.233Z,29.60
2023-04-23T09:06:05.687Z,30.80
2023-04-23T09:08:32.528Z,31.00
2023-04-23T09:11:01.146Z,30.60
2023-04-23T09:38:10.801Z,30.40
2023-04-23T09:40:39.410Z,30.40
2023-04-23T11:02:57.690Z,28.70
2023-04-23T11:05:26.066Z,29.00
2023-04-23T11:13:27.252Z,27.50
2023-04-23T11:16:18.547Z,27.70
2023-04-23T11:19:03.798Z,27.90
2023-04-23T12:09:08.573Z,26.80
2023-04-23T12:11:36.312Z,27.00
2023-04-23T12:14:03.749Z,27.70
2023-04-23T12:16:47.337Z,27.60
2023-04-23T12:19:16.780Z,27.10
2023-04-23T12:21:55.263Z,27.30
2023-04-23T12:26:56.023Z,27.40
2023-04-23T12:29:23.533Z,27.10
2023-04-23T12:31:52.325Z,27.40
2023-04-23T12:36:50.641Z,27.00
2023-04-23T12:39:24.391Z,27.20
2023-04-23T12:41:53.189Z,27.10
2023-04-23T12:44:21.118Z,28.10
2023-04-23T12:47:05.124Z,28.20
2023-04-23T12:49:33.481Z,28.90
2023-04-23T12:52:01.691Z,28.80
2023-04-23T12:54:33.532Z,28.80
2023-04-23T12:57:04.196Z,29.30
2023-04-23T12:59:32.126Z,29.00
2023-04-23T13:02:03.597Z,29.50
2023-04-23T13:04:32.697Z,29.40
2023-04-23T13:06:59.740Z,28.90
2023-04-23T13:09:28.474Z,28.10
2023-04-23T13:11:55.828Z,27.80
2023-04-23T13:14:23.730Z,27.40
2023-04-23T13:16:51.052Z,27.60
2023-04-23T13:19:18.146Z,28.20
2023-04-23T13:21:45.650Z,30.10
2023-04-23T13:24:12.522Z,31.80
2023-04-23T13:26:39.591Z,32.70
2023-04-23T13:29:07.098Z,33.00
2023-04-23T13:31:34.242Z,34.10
2023-04-23T13:34:03.089Z,34.10
2023-04-23T13:36:30.665Z,33.80
2023-04-23T13:38:57.809Z,33.90
2023-04-23T13:41:24.811Z,34.10
2023-04-23T13:43:52.741Z,33.90
2023-04-23T13:46:20.008Z,33.80
2023-04-23T13:48:47.142Z,34.20
2023-04-23T13:51:26.472Z,34.30
2023-04-23T13:54:00.954Z,34.50
2023-04-23T13:56:27.986Z,34.80
2023-04-23T13:59:02.236Z,34.70
2023-04-23T14:01:35.487Z,34.60
2023-04-23T14:04:04.388Z,35.10
2023-04-23T14:06:31.707Z,34.40
2023-04-23T14:08:58.848Z,34.40
2023-04-23T14:11:25.973Z,34.20
2023-04-23T14:13:52.866Z,34.30
2023-04-23T14:16:19.867Z,34.30
2023-04-23T14:18:46.897Z,34.20
2023-04-23T14:21:16.260Z,34.50
2023-04-23T14:23:53.449Z,34.50
2023-04-23T14:26:40.678Z,34.50
2023-04-23T14:29:41.009Z,34.70
2023-04-23T14:32:08.240Z,35.00
2023-04-23T14:34:35.940Z,35.30
2023-04-23T14:37:03.964Z,35.40
2023-04-23T14:39:30.966Z,35.30
2023-04-23T14:41:58.037Z,35.20
2023-04-23T14:44:26.713Z,35.30
2023-04-23T14:46:53.767Z,35.20
2023-04-23T14:49:21.473Z,35.10
2023-04-23T14:51:50.894Z,35.00
2023-04-23T14:54:18.045Z,34.80
2023-04-23T14:56:44.986Z,34.90
2023-04-23T14:59:12.259Z,34.90
2023-04-23T15:01:39.292Z,34.50
2023-04-23T15:04:06.275Z,34.30
2023-04-23T15:06:33.205Z,34.50
2023-04-23T15:09:00.214Z,34.40
2023-04-23T15:11:27.307Z,34.70
2023-04-23T15:14:16.549Z,34.50
2023-04-23T15:19:13.302Z,34.70
2023-04-23T15:21:42.708Z,34.90
2023-04-23T15:24:10.126Z,34.30
2023-04-23T15:26:37.712Z,34.30
2023-04-23T15:29:06.177Z,34.40
2023-04-23T15:31:33.184Z,34.50
2023-04-23T15:34:00.358Z,34.60
2023-04-23T15:36:27.420Z,34.50
2023-04-23T15:38:54.412Z,34.70
2023-04-23T15:41:21.932Z,34.80
2023-04-23T15:43:50.510Z,34.70
2023-04-23T15:46:17.677Z,34.80
2023-04-23T15:48:44.745Z,34.80
2023-04-23T15:51:11.899Z,34.80
2023-04-23T15:53:38.925Z,35.10
2023-04-23T15:56:05.852Z,35.30
2023-04-23T15:58:32.837Z,35.30
2023-04-23T16:00:59.860Z,35.50
2023-04-23T16:03:27.155Z,35.60
2023-04-23T16:05:54.193Z,35.60
2023-04-23T16:08:21.030Z,35.60
2023-04-23T16:10:47.924Z,35.70
2023-04-23T16:13:15.011Z,36.20
2023-04-23T16:15:41.892Z,36.20
2023-04-23T16:18:08.807Z,36.20
2023-04-23T16:20:36.236Z,36.40
2023-04-23T16:23:03.223Z,36.30
2023-04-23T16:25:30.235Z,36.70
2023-04-23T16:27:57.251Z,36.30
2023-04-23T16:30:24.751Z,36.50
2023-04-23T16:32:51.976Z,36.40
2023-04-23T16:35:18.928Z,36.30
2023-04-23T16:37:45.951Z,36.30
2023-04-23T16:40:15.754Z,36.20
2023-04-23T16:42:43.600Z,36.20
2023-04-23T16:45:11.149Z,36.10
2023-04-23T16:47:38.055Z,36.00
2023-04-23T16:50:06.077Z,36.00
2023-04-23T16:52:33.021Z,36.20
2023-04-23T16:55:00.158Z,36.30
2023-04-23T16:57:27.725Z,36.40
2023-04-23T16:59:56.336Z,36.50
2023-04-23T17:02:23.224Z,36.60
2023-04-23T17:04:50.411Z,36.80
2023-04-23T17:07:19.125Z,36.80
2023-04-23T17:09:46.918Z,37.00
2023-04-23T17:12:13.925Z,37.20
2023-04-23T17:14:41.113Z,37.40
2023-04-23T17:17:08.161Z,37.40
2023-04-23T17:19:35.209Z,37.60
2023-04-23T17:22:02.408Z,37.80
2023-04-23T17:24:29.305Z,37.80
2023-04-23T17:26:56.964Z,38.10
2023-04-23T17:29:23.803Z,38.10
2023-04-23T17:31:50.750Z,38.40
2023-04-23T17:34:17.748Z,38.30
2023-04-23T17:36:44.674Z,38.50
2023-04-23T17:39:11.570Z,38.50
2023-04-23T17:41:38.610Z,38.90
2023-04-23T17:44:05.529Z,38.80
2023-04-23T17:46:32.475Z,38.90
2023-04-23T17:48:59.441Z,39.00
2023-04-23T17:51:27.378Z,39.30
2023-04-23T17:53:54.314Z,39.60
2023-04-23T17:56:21.817Z,39.60
2023-04-23T17:58:48.740Z,39.90
2023-04-23T18:01:17.772Z,40.30
2023-04-23T18:03:45.336Z,40.50
2023-04-23T18:06:12.391Z,40.70
2023-04-23T18:08:41.895Z,41.10
2023-04-23T18:11:09.643Z,41.20
2023-04-23T18:13:37.023Z,41.60
2023-04-23T18:16:04.191Z,41.90
2023-04-23T18:18:31.318Z,42.20
2023-04-23T18:20:58.464Z,42.40
2023-04-23T18:23:26.328Z,42.70
2023-04-23T18:25:53.503Z,42.80
2023-04-23T18:28:21.358Z,43.10
2023-04-23T18:30:48.322Z,43.30
2023-04-23T18:33:32.793Z,43.50
2023-04-23T18:36:05.789Z,44.50
2023-04-23T18:38:43.446Z,44.70
2023-04-23T18:41:10.567Z,44.80
2023-04-23T18:43:37.662Z,45.00
2023-04-23T18:46:04.863Z,45.20
2023-04-23T18:48:34.793Z,45.50
2023-04-23T18:51:17.774Z,45.40
2023-04-23T18:53:46.056Z,46.00
2023-04-23T18:56:13.026Z,45.90
2023-04-23T18:58:39.974Z,45.90
2023-04-23T19:01:07.301Z,46.10
2023-04-23T19:03:34.495Z,46.00
2023-04-23T19:06:07.276Z,46.20
2023-04-23T19:08:37.248Z,46.30
2023-04-23T19:11:04.427Z,46.50
2023-04-23T19:13:31.386Z,46.60
2023-04-23T19:15:58.456Z,46.60
2023-04-23T19:18:25.499Z,46.80
2023-04-23T19:20:52.803Z,47.40
2023-04-23T19:23:20.520Z,47.10
2023-04-23T19:25:48.137Z,47.40
2023-04-23T19:28:15.041Z,47.50
2023-04-23T19:30:42.048Z,47.70
2023-04-23T19:33:09.189Z,47.80
2023-04-23T19:35:39.289Z,47.80
2023-04-23T19:38:06.993Z,48.20
2023-04-23T19:40:34.036Z,48.30
2023-04-23T19:43:01.048Z,48.50
2023-04-23T19:45:30.084Z,48.40
2023-04-23T19:47:57.475Z,48.70
2023-04-23T19:50:25.098Z,48.80
2023-04-23T19:52:52.450Z,49.00
2023-04-23T19:55:22.318Z,49.40
2023-04-23T19:57:49.319Z,49.40
2023-04-23T20:00:16.838Z,49.60
2023-04-23T20:02:43.929Z,49.70
2023-04-23T20:05:11.471Z,49.70
2023-04-23T20:07:39.007Z,49.90
2023-04-23T20:10:07.933Z,49.90
2023-04-23T20:12:35.436Z,50.00
2023-04-23T20:15:02.550Z,50.20
2023-04-23T20:17:32.974Z,50.20
2023-04-23T20:20:01.888Z,50.30
2023-04-23T20:22:29.908Z,50.30
2023-04-23T20:24:57.905Z,50.40
2023-04-23T20:27:26.339Z,50.40
2023-04-23T20:29:53.374Z,50.40
2023-04-23T20:32:20.429Z,50.60
2023-04-23T20:34:47.364Z,50.60
2023-04-23T20:37:14.314Z,50.50
2023-04-23T20:39:41.934Z,50.70
2023-04-23T20:42:09.086Z,50.70
2023-04-23T20:44:36.434Z,50.70
2023-04-23T20:47:04.982Z,51.00
2023-04-23T20:49:32.597Z,51.00
2023-04-23T20:51:59.933Z,50.80
2023-04-23T20:54:26.924Z,50.90
2023-04-23T20:56:54.428Z,51.00
2023-04-23T20:59:21.977Z,51.00
2023-04-23T21:01:50.120Z,51.20
2023-04-23T21:04:17.543Z,51.20
2023-04-23T21:06:47.007Z,51.40
2023-04-23T21:09:13.989Z,51.60
2023-04-23T21:11:41.627Z,52.10
2023-04-23T21:14:08.992Z,52.10
2023-04-23T21:16:36.997Z,52.20
2023-04-23T21:19:05.386Z,52.30
2023-04-23T21:21:32.614Z,52.30
2023-04-23T21:24:01.113Z,52.40
2023-04-23T21:26:30.078Z,52.50
2023-04-23T21:28:57.075Z,52.80
2023-04-23T21:31:39.780Z,52.60
2023-04-23T21:34:06.777Z,52.60
2023-04-23T21:36:33.629Z,52.60
2023-04-23T21:39:00.718Z,52.70
2023-04-23T21:41:27.640Z,52.60
2023-04-23T21:43:54.793Z,52.80
2023-04-23T21:46:23.803Z,52.70
2023-04-23T21:48:53.678Z,52.90
2023-04-23T21:51:22.494Z,52.90
2023-04-23T21:53:49.599Z,52.90
2023-04-23T21:56:17.546Z,52.90
2023-04-23T21:58:45.151Z,53.10
2023-04-23T22:01:12.198Z,53.00
2023-04-23T22:03:42.772Z,53.20
2023-04-23T22:06:09.802Z,53.10
2023-04-23T22:08:40.670Z,53.10
2023-04-23T22:11:08.367Z,53.40
2023-04-23T22:13:36.221Z,53.70
2023-04-23T22:16:10.688Z,53.80
2023-04-23T22:18:44.722Z,53.90
2023-04-23T22:21:11.826Z,54.10
2023-04-23T22:23:38.762Z,54.20
2023-04-23T22:26:05.931Z,54.10
2023-04-23T22:28:32.869Z,54.60
2023-04-23T22:30:59.744Z,54.70
2023-04-23T22:33:28.287Z,54.50
2023-04-23T22:35:55.168Z,54.70
2023-04-23T22:38:22.046Z,54.60
2023-04-23T22:40:48.910Z,54.70
2023-04-23T22:43:16.243Z,54.70
2023-04-23T22:45:43.206Z,54.70
2023-04-23T22:48:10.408Z,54.80
2023-04-23T22:50:40.151Z,54.80
2023-04-23T22:53:07.015Z,54.90
2023-04-23T22:55:34.283Z,55.10
2023-04-23T22:58:01.302Z,55.30
2023-04-23T23:00:28.366Z,55.10
2023-04-23T23:02:55.983Z,55.50
2023-04-23T23:05:22.970Z,55.50
2023-04-23T23:07:50.289Z,55.70
2023-04-23T23:10:17.240Z,55.80
2023-04-23T23:12:44.160Z,56.00
2023-04-23T23:15:11.584Z,55.90
2023-04-23T23:17:38.656Z,56.00
2023-04-23T23:20:09.023Z,56.10
2023-04-23T23:22:37.529Z,56.10
2023-04-23T23:25:06.839Z,56.40
2023-04-23T23:27:33.700Z,56.30
2023-04-23T23:30:05.576Z,56.40
2023-04-23T23:32:36.127Z,56.40
2023-04-23T23:35:03.953Z,56.70
2023-04-23T23:37:30.883Z,56.80
2023-04-23T23:39:57.910Z,56.90
2023-04-23T23:42:24.834Z,56.90
2023-04-23T23:44:51.689Z,57.20
2023-04-23T23:47:18.871Z,57.30
2023-04-23T23:49:45.871Z,57.20
2023-04-23T23:52:12.758Z,57.40
2023-04-23T23:54:39.600Z,57.50
2023-04-23T23:57:06.454Z,57.50
2023-04-23T23:59:33.673Z,57.70
